sensor_id;sensor_type;location;lat;lon;timestamp;pressure;altitude;pressure_sealevel;temperature;humidity
13068;BME280;6600;51.362;6.686;2022-12-18T00:00:54;102448.75;;;-2.38;100.00
13068;BME280;6600;51.362;6.686;2022-12-18T00:03:19;102450.78;;;-2.43;100.00
13068;BME280;6600;51.362;6.686;2022-12-18T00:05:49;102447.53;;;-2.33;100.00
13068;BME280;6600;51.362;6.686;2022-12-18T00:08:15;102450.09;;;-2.31;100.00
13068;BME280;6600;51.362;6.686;2022-12-18T00:10:41;102448.22;;;-2.29;100.00
13068;BME280;6600;51.362;6.686;2022-12-18T00:13:07;102450.47;;;-2.23;100.00
13068;BME280;6600;51.362;6.686;2022-12-18T00:15:36;102452.56;;;-2.14;100.00
13068;BME280;6600;51.362;6.686;2022-12-18T00:18:01;102453.09;;;-2.23;99.87
13068;BME280;6600;51.362;6.686;2022-12-18T00:20:27;102444.28;;;-2.22;99.82
13068;BME280;6600;51.362;6.686;2022-12-18T00:22:53;102441.41;;;-2.18;99.84
13068;BME280;6600;51.362;6.686;2022-12-18T00:25:18;102437.44;;;-2.25;99.54
13068;BME280;6600;51.362;6.686;2022-12-18T00:27:43;102442.41;;;-2.20;99.59
13068;BME280;6600;51.362;6.686;2022-12-18T00:30:09;102437.16;;;-2.20;99.44
13068;BME280;6600;51.362;6.686;2022-12-18T00:32:35;102440.72;;;-2.21;98.89
13068;BME280;6600;51.362;6.686;2022-12-18T00:35:00;102452.72;;;-2.17;99.53
13068;BME280;6600;51.362;6.686;2022-12-18T00:37:25;102445.63;;;-2.15;99.78
13068;BME280;6600;51.362;6.686;2022-12-18T00:39:51;102445.97;;;-2.21;99.24
13068;BME280;6600;51.362;6.686;2022-12-18T00:42:16;102440.19;;;-2.12;99.25
13068;BME280;6600;51.362;6.686;2022-12-18T00:45:00;102430.69;;;-2.29;99.05
13068;BME280;6600;51.362;6.686;2022-12-18T00:47:25;102421.59;;;-2.23;98.87
13068;BME280;6600;51.362;6.686;2022-12-18T00:49:51;102426.84;;;-2.23;98.73
13068;BME280;6600;51.362;6.686;2022-12-18T00:52:16;102429.66;;;-2.12;98.80
13068;BME280;6600;51.362;6.686;2022-12-18T00:54:41;102430.03;;;-2.18;98.71
13068;BME280;6600;51.362;6.686;2022-12-18T00:57:06;102422.06;;;-2.17;98.69
13068;BME280;6600;51.362;6.686;2022-12-18T00:59:32;102423.47;;;-2.25;98.34
13068;BME280;6600;51.362;6.686;2022-12-18T01:01:57;102423.47;;;-2.25;98.44
13068;BME280;6600;51.362;6.686;2022-12-18T01:04:22;102424.22;;;-2.23;98.83
13068;BME280;6600;51.362;6.686;2022-12-18T01:06:48;102425.25;;;-2.12;99.08
13068;BME280;6600;51.362;6.686;2022-12-18T01:09:13;102431.19;;;-2.08;98.60
13068;BME280;6600;51.362;6.686;2022-12-18T01:11:39;102425.75;;;-2.05;97.82
13068;BME280;6600;51.362;6.686;2022-12-18T01:14:05;102426.13;;;-2.11;98.17
13068;BME280;6600;51.362;6.686;2022-12-18T01:16:30;102430.97;;;-2.19;99.05
13068;BME280;6600;51.362;6.686;2022-12-18T01:18:55;102431.72;;;-2.17;98.68
13068;BME280;6600;51.362;6.686;2022-12-18T01:21:22;102423.56;;;-2.13;97.79
13068;BME280;6600;51.362;6.686;2022-12-18T01:23:51;102422.63;;;-2.12;98.33
13068;BME280;6600;51.362;6.686;2022-12-18T01:26:17;102429.38;;;-2.22;98.93
13068;BME280;6600;51.362;6.686;2022-12-18T01:28:43;102432.09;;;-2.23;99.03
13068;BME280;6600;51.362;6.686;2022-12-18T01:31:18;102428.34;;;-2.19;98.44
13068;BME280;6600;51.362;6.686;2022-12-18T01:33:44;102432.81;;;-2.35;100.00
13068;BME280;6600;51.362;6.686;2022-12-18T01:36:18;102432.44;;;-2.29;99.84
13068;BME280;6600;51.362;6.686;2022-12-18T01:38:45;102429.16;;;-2.33;99.80
13068;BME280;6600;51.362;6.686;2022-12-18T01:41:11;102422.31;;;-2.35;100.00
13068;BME280;6600;51.362;6.686;2022-12-18T01:43:53;102415.84;;;-2.30;99.79
13068;BME280;6600;51.362;6.686;2022-12-18T01:46:21;102413.50;;;-2.34;99.33
13068;BME280;6600;51.362;6.686;2022-12-18T01:48:49;102424.19;;;-2.37;99.51
13068;BME280;6600;51.362;6.686;2022-12-18T01:51:15;102421.44;;;-2.50;99.38
13068;BME280;6600;51.362;6.686;2022-12-18T01:53:42;102431.19;;;-2.52;99.59
13068;BME280;6600;51.362;6.686;2022-12-18T01:56:12;102428.81;;;-2.57;100.00
13068;BME280;6600;51.362;6.686;2022-12-18T01:59:04;102445.13;;;-2.51;100.00
13068;BME280;6600;51.362;6.686;2022-12-18T02:01:32;102439.22;;;-2.55;100.00
13068;BME280;6600;51.362;6.686;2022-12-18T02:04:21;102431.19;;;-2.52;100.00
13068;BME280;6600;51.362;6.686;2022-12-18T02:06:50;102436.69;;;-2.57;100.00
13068;BME280;6600;51.362;6.686;2022-12-18T02:09:28;102433.72;;;-2.50;100.00
13068;BME280;6600;51.362;6.686;2022-12-18T02:12:06;102440.66;;;-2.49;100.00
13068;BME280;6600;51.362;6.686;2022-12-18T02:14:42;102439.31;;;-2.57;100.00
13068;BME280;6600;51.362;6.686;2022-12-18T02:22:43;102438.00;;;-2.64;100.00
13068;BME280;6600;51.362;6.686;2022-12-18T02:27:48;102429.69;;;-2.72;100.00
13068;BME280;6600;51.362;6.686;2022-12-18T02:30:16;102424.63;;;-2.75;100.00
13068;BME280;6600;51.362;6.686;2022-12-18T02:32:46;102434.28;;;-2.75;100.00
13068;BME280;6600;51.362;6.686;2022-12-18T02:35:16;102424.63;;;-2.75;100.00
13068;BME280;6600;51.362;6.686;2022-12-18T02:37:43;102415.34;;;-2.80;100.00
13068;BME280;6600;51.362;6.686;2022-12-18T02:40:11;102426.88;;;-2.83;100.00
13068;BME280;6600;51.362;6.686;2022-12-18T02:42:37;102421.78;;;-2.86;100.00
13068;BME280;6600;51.362;6.686;2022-12-18T02:45:03;102427.97;;;-2.87;100.00
13068;BME280;6600;51.362;6.686;2022-12-18T02:47:32;102429.56;;;-2.84;100.00
13068;BME280;6600;51.362;6.686;2022-12-18T02:52:31;102424.00;;;-2.94;100.00
13068;BME280;6600;51.362;6.686;2022-12-18T02:55:13;102421.78;;;-2.86;100.00
13068;BME280;6600;51.362;6.686;2022-12-18T02:57:58;102419.38;;;-2.75;100.00
13068;BME280;6600;51.362;6.686;2022-12-18T03:00:37;102429.03;;;-2.75;100.00
13068;BME280;6600;51.362;6.686;2022-12-18T03:03:14;102422.94;;;-2.76;100.00
13068;BME280;6600;51.362;6.686;2022-12-18T03:05:47;102430.25;;;-2.81;100.00
13068;BME280;6600;51.362;6.686;2022-12-18T03:10:50;102415.66;;;-2.71;100.00
13068;BME280;6600;51.362;6.686;2022-12-18T03:13:27;102410.91;;;-2.64;100.00
13068;BME280;6600;51.362;6.686;2022-12-18T03:15:54;102409.56;;;-2.71;100.00
13068;BME280;6600;51.362;6.686;2022-12-18T03:18:34;102402.28;;;-2.66;100.00
13068;BME280;6600;51.362;6.686;2022-12-18T03:21:05;102395.69;;;-2.73;100.00
13068;BME280;6600;51.362;6.686;2022-12-18T03:23:35;102388.50;;;-2.70;100.00
13068;BME280;6600;51.362;6.686;2022-12-18T03:26:08;102400.34;;;-2.63;100.00
13068;BME280;6600;51.362;6.686;2022-12-18T03:28:38;102392.47;;;-2.63;100.00
13068;BME280;6600;51.362;6.686;2022-12-18T03:31:05;102397.53;;;-2.60;100.00
13068;BME280;6600;51.362;6.686;2022-12-18T03:33:38;102400.88;;;-2.58;100.00
13068;BME280;6600;51.362;6.686;2022-12-18T03:36:05;102400.22;;;-2.61;100.00
13068;BME280;6600;51.362;6.686;2022-12-18T03:38:30;102406.50;;;-2.64;100.00
13068;BME280;6600;51.362;6.686;2022-12-18T03:41:06;102402.22;;;-2.50;100.00
13068;BME280;6600;51.362;6.686;2022-12-18T03:43:48;102403.81;;;-2.48;100.00
13068;BME280;6600;51.362;6.686;2022-12-18T03:46:28;102403.72;;;-2.46;100.00
13068;BME280;6600;51.362;6.686;2022-12-18T03:48:59;102393.97;;;-2.44;100.00
13068;BME280;6600;51.362;6.686;2022-12-18T03:54:07;102405.06;;;-2.39;99.75
13068;BME280;6600;51.362;6.686;2022-12-18T03:56:42;102394.19;;;-2.33;100.00
13068;BME280;6600;51.362;6.686;2022-12-18T03:59:10;102392.88;;;-2.40;99.92
13068;BME280;6600;51.362;6.686;2022-12-18T04:01:40;102391.00;;;-2.38;100.00
13068;BME280;6600;51.362;6.686;2022-12-18T04:04:08;102383.88;;;-2.36;99.96
13068;BME280;6600;51.362;6.686;2022-12-18T04:06:35;102384.25;;;-2.42;100.00
13068;BME280;6600;51.362;6.686;2022-12-18T04:09:01;102384.44;;;-2.45;100.00
13068;BME280;6600;51.362;6.686;2022-12-18T04:11:26;102384.91;;;-2.39;100.00
13068;BME280;6600;51.362;6.686;2022-12-18T04:13:56;102380.59;;;-2.40;99.47
13068;BME280;6600;51.362;6.686;2022-12-18T04:16:22;102381.22;;;-2.50;100.00
13068;BME280;6600;51.362;6.686;2022-12-18T04:18:47;102379.19;;;-2.45;99.78
13068;BME280;6600;51.362;6.686;2022-12-18T04:21:13;102375.53;;;-2.43;100.00
13068;BME280;6600;51.362;6.686;2022-12-18T04:23:38;102382.00;;;-2.48;100.00
13068;BME280;6600;51.362;6.686;2022-12-18T04:26:03;102375.00;;;-2.64;100.00
13068;BME280;6600;51.362;6.686;2022-12-18T04:28:29;102375.38;;;-2.70;100.00
13068;BME280;6600;51.362;6.686;2022-12-18T04:30:54;102371.13;;;-2.72;100.00
13068;BME280;6600;51.362;6.686;2022-12-18T04:33:19;102371.59;;;-2.80;100.00
13068;BME280;6600;51.362;6.686;2022-12-18T04:35:45;102379.66;;;-2.83;100.00
13068;BME280;6600;51.362;6.686;2022-12-18T04:38:10;102377.28;;;-2.87;100.00
13068;BME280;6600;51.362;6.686;2022-12-18T04:40:36;102373.91;;;-2.89;100.00
13068;BME280;6600;51.362;6.686;2022-12-18T04:43:02;102362.59;;;-2.90;100.00
13068;BME280;6600;51.362;6.686;2022-12-18T04:45:29;102368.16;;;-2.96;100.00
13068;BME280;6600;51.362;6.686;2022-12-18T04:47:57;102366.22;;;-2.92;100.00
13068;BME280;6600;51.362;6.686;2022-12-18T04:50:22;102370.22;;;-3.01;100.00
13068;BME280;6600;51.362;6.686;2022-12-18T04:52:48;102366.69;;;-3.00;100.00
13068;BME280;6600;51.362;6.686;2022-12-18T04:55:13;102364.97;;;-3.01;100.00
13068;BME280;6600;51.362;6.686;2022-12-18T04:57:38;102360.41;;;-2.97;100.00
13068;BME280;6600;51.362;6.686;2022-12-18T05:00:04;102349.06;;;-2.98;100.00
13068;BME280;6600;51.362;6.686;2022-12-18T05:02:31;102354.50;;;-3.01;100.00
13068;BME280;6600;51.362;6.686;2022-12-18T05:04:56;102341.75;;;-3.07;100.00
13068;BME280;6600;51.362;6.686;2022-12-18T05:07:22;102343.75;;;-3.12;100.00
13068;BME280;6600;51.362;6.686;2022-12-18T05:09:47;102346.69;;;-3.02;100.00
13068;BME280;6600;51.362;6.686;2022-12-18T05:12:12;102353.50;;;-3.14;100.00
13068;BME280;6600;51.362;6.686;2022-12-18T05:14:38;102365.00;;;-3.17;100.00
13068;BME280;6600;51.362;6.686;2022-12-18T05:17:03;102351.81;;;-3.15;100.00
13068;BME280;6600;51.362;6.686;2022-12-18T05:19:28;102351.81;;;-3.15;100.00
13068;BME280;6600;51.362;6.686;2022-12-18T05:21:53;102345.72;;;-3.16;100.00
13068;BME280;6600;51.362;6.686;2022-12-18T05:24:19;102346.38;;;-3.12;100.00
13068;BME280;6600;51.362;6.686;2022-12-18T05:26:44;102340.97;;;-3.09;100.00
13068;BME280;6600;51.362;6.686;2022-12-18T05:29:10;102350.53;;;-3.08;100.00
13068;BME280;6600;51.362;6.686;2022-12-18T05:31:37;102355.00;;;-3.10;100.00
13068;BME280;6600;51.362;6.686;2022-12-18T05:34:03;102358.81;;;-3.00;100.00
13068;BME280;6600;51.362;6.686;2022-12-18T05:36:28;102356.19;;;-3.00;100.00
13068;BME280;6600;51.362;6.686;2022-12-18T05:38:54;102358.69;;;-2.83;100.00
13068;BME280;6600;51.362;6.686;2022-12-18T05:41:19;102362.03;;;-2.81;100.00
13068;BME280;6600;51.362;6.686;2022-12-18T05:43:45;102370.47;;;-2.76;100.00
13068;BME280;6600;51.362;6.686;2022-12-18T05:46:15;102373.03;;;-2.74;100.00
13068;BME280;6600;51.362;6.686;2022-12-18T05:48:42;102380.97;;;-2.76;100.00
13068;BME280;6600;51.362;6.686;2022-12-18T05:51:10;102392.47;;;-2.63;100.00
13068;BME280;6600;51.362;6.686;2022-12-18T05:53:36;102388.56;;;-2.71;100.00
13068;BME280;6600;51.362;6.686;2022-12-18T05:56:05;102392.47;;;-2.63;100.00
13068;BME280;6600;51.362;6.686;2022-12-18T05:58:31;102394.13;;;-2.62;100.00
13068;BME280;6600;51.362;6.686;2022-12-18T06:00:57;102401.25;;;-2.64;100.00
13068;BME280;6600;51.362;6.686;2022-12-18T06:03:23;102393.97;;;-2.59;100.00
13068;BME280;6600;51.362;6.686;2022-12-18T06:05:48;102401.44;;;-2.67;100.00
13068;BME280;6600;51.362;6.686;2022-12-18T06:08:13;102406.19;;;-2.73;100.00
13068;BME280;6600;51.362;6.686;2022-12-18T06:10:40;102434.28;;;-2.75;100.00
13068;BME280;6600;51.362;6.686;2022-12-18T06:13:06;102427.38;;;-2.76;100.00
13068;BME280;6600;51.362;6.686;2022-12-18T06:15:32;102422.94;;;-2.76;100.00
13068;BME280;6600;51.362;6.686;2022-12-18T06:17:57;102417.69;;;-2.76;100.00
13068;BME280;6600;51.362;6.686;2022-12-18T06:20:22;102416.03;;;-2.77;100.00
13068;BME280;6600;51.362;6.686;2022-12-18T06:22:48;102401.81;;;-2.73;100.00
13068;BME280;6600;51.362;6.686;2022-12-18T06:25:13;102421.09;;;-2.74;100.00
13068;BME280;6600;51.362;6.686;2022-12-18T06:27:39;102405.13;;;-2.85;100.00
13068;BME280;6600;51.362;6.686;2022-12-18T06:30:06;102407.84;;;-2.57;100.00
13068;BME280;6600;51.362;6.686;2022-12-18T06:32:31;102398.13;;;-2.40;100.00
13068;BME280;6600;51.362;6.686;2022-12-18T06:34:56;102395.13;;;-2.20;100.00
13068;BME280;6600;51.362;6.686;2022-12-18T06:37:23;102389.34;;;-2.11;100.00
13068;BME280;6600;51.362;6.686;2022-12-18T06:39:51;102381.09;;;-2.05;100.00
13068;BME280;6600;51.362;6.686;2022-12-18T06:42:17;102382.41;;;-1.98;100.00
13068;BME280;6600;51.362;6.686;2022-12-18T06:44:42;102374.91;;;-2.04;100.00
13068;BME280;6600;51.362;6.686;2022-12-18T06:47:07;102374.91;;;-2.04;100.00
13068;BME280;6600;51.362;6.686;2022-12-18T06:49:32;102369.34;;;-1.99;100.00
13068;BME280;6600;51.362;6.686;2022-12-18T06:51:58;102357.66;;;-2.08;100.00
13068;BME280;6600;51.362;6.686;2022-12-18T06:54:23;102357.81;;;-2.25;100.00
13068;BME280;6600;51.362;6.686;2022-12-18T06:56:48;102356.34;;;-2.15;100.00
13068;BME280;6600;51.362;6.686;2022-12-18T06:59:15;102356.13;;;-2.12;100.00
13068;BME280;6600;51.362;6.686;2022-12-18T07:01:40;102360.06;;;-2.19;100.00
13068;BME280;6600;51.362;6.686;2022-12-18T07:04:05;102359.03;;;-2.17;100.00
13068;BME280;6600;51.362;6.686;2022-12-18T07:06:31;102359.22;;;-2.20;99.97
13068;BME280;6600;51.362;6.686;2022-12-18T07:08:56;102361.59;;;-2.01;99.58
13068;BME280;6600;51.362;6.686;2022-12-18T07:11:22;102352.41;;;-2.08;99.57
13068;BME280;6600;51.362;6.686;2022-12-18T07:13:47;102355.22;;;-1.97;99.29
13068;BME280;6600;51.362;6.686;2022-12-18T07:16:18;102358.56;;;-1.95;98.73
13068;BME280;6600;51.362;6.686;2022-12-18T07:18:44;102363.75;;;-1.93;99.51
13068;BME280;6600;51.362;6.686;2022-12-18T07:21:12;102362.72;;;-2.05;99.01
13068;BME280;6600;51.362;6.686;2022-12-18T07:23:38;102369.47;;;-2.01;99.08
13068;BME280;6600;51.362;6.686;2022-12-18T07:26:06;102369.47;;;-2.01;98.86
13068;BME280;6600;51.362;6.686;2022-12-18T07:28:32;102364.94;;;-1.99;99.13
13068;BME280;6600;51.362;6.686;2022-12-18T07:31:02;102353.59;;;-1.99;98.28
13068;BME280;6600;51.362;6.686;2022-12-18T07:33:28;102348.06;;;-1.95;98.17
13068;BME280;6600;51.362;6.686;2022-12-18T07:35:54;102342.06;;;-1.97;97.67
13068;BME280;6600;51.362;6.686;2022-12-18T07:38:20;102349.56;;;-1.91;97.39
13068;BME280;6600;51.362;6.686;2022-12-18T07:40:45;102345.03;;;-1.89;97.66
13068;BME280;6600;51.362;6.686;2022-12-18T07:43:10;102347.03;;;-1.92;97.62
13068;BME280;6600;51.362;6.686;2022-12-18T07:45:36;102348.31;;;-1.85;97.91
13068;BME280;6600;51.362;6.686;2022-12-18T07:48:01;102349.19;;;-1.85;97.21
13068;BME280;6600;51.362;6.686;2022-12-18T07:50:26;102358.09;;;-1.87;97.34
13068;BME280;6600;51.362;6.686;2022-12-18T07:52:52;102366.63;;;-1.84;97.77
13068;BME280;6600;51.362;6.686;2022-12-18T07:55:17;102364.00;;;-1.70;96.77
13068;BME280;6600;51.362;6.686;2022-12-18T07:57:42;102354.97;;;-1.66;96.30
13068;BME280;6600;51.362;6.686;2022-12-18T08:00:08;102337.13;;;-1.61;96.82
13068;BME280;6600;51.362;6.686;2022-12-18T08:02:33;102338.22;;;-1.50;95.74
13068;BME280;6600;51.362;6.686;2022-12-18T08:04:59;102339.31;;;-1.40;96.13
13068;BME280;6600;51.362;6.686;2022-12-18T08:07:24;102333.00;;;-1.38;95.15
13068;BME280;6600;51.362;6.686;2022-12-18T08:09:49;102323.78;;;-1.31;94.63
13068;BME280;6600;51.362;6.686;2022-12-18T08:12:15;102321.41;;;-1.21;95.22
13068;BME280;6600;51.362;6.686;2022-12-18T08:14:40;102331.19;;;-1.23;94.62
13068;BME280;6600;51.362;6.686;2022-12-18T08:17:05;102311.63;;;-1.19;95.29
13068;BME280;6600;51.362;6.686;2022-12-18T08:19:31;102305.31;;;-1.17;94.93
13068;BME280;6600;51.362;6.686;2022-12-18T08:21:56;102301.66;;;-1.14;94.41
13068;BME280;6600;51.362;6.686;2022-12-18T08:24:22;102298.81;;;-1.11;94.35
13068;BME280;6600;51.362;6.686;2022-12-18T08:26:47;102287.88;;;-1.05;94.47
13068;BME280;6600;51.362;6.686;2022-12-18T08:29:12;102296.50;;;-1.03;94.14
13068;BME280;6600;51.362;6.686;2022-12-18T08:31:37;102298.81;;;-1.11;93.82
13068;BME280;6600;51.362;6.686;2022-12-18T08:34:03;102296.69;;;-1.19;94.38
13068;BME280;6600;51.362;6.686;2022-12-18T08:36:28;102297.97;;;-1.24;95.15
13068;BME280;6600;51.362;6.686;2022-12-18T08:38:54;102298.53;;;-0.94;94.29
13068;BME280;6600;51.362;6.686;2022-12-18T08:41:19;102281.78;;;-0.93;94.12
13068;BME280;6600;51.362;6.686;2022-12-18T08:43:45;102300.75;;;-0.75;94.55
13068;BME280;6600;51.362;6.686;2022-12-18T08:46:38;102305.63;;;-0.57;94.32
13068;BME280;6600;51.362;6.686;2022-12-18T08:49:04;102305.81;;;-0.72;93.47
13068;BME280;6600;51.362;6.686;2022-12-18T08:51:30;102307.94;;;-0.65;93.34
13068;BME280;6600;51.362;6.686;2022-12-18T08:53:55;102305.41;;;-0.54;93.54
13068;BME280;6600;51.362;6.686;2022-12-18T08:56:20;102301.41;;;-0.46;92.99
13068;BME280;6600;51.362;6.686;2022-12-18T08:58:46;102296.16;;;-0.46;93.15
13068;BME280;6600;51.362;6.686;2022-12-18T09:01:12;102294.13;;;-0.30;92.79
13068;BME280;6600;51.362;6.686;2022-12-18T09:03:38;102305.19;;;-0.38;92.36
13068;BME280;6600;51.362;6.686;2022-12-18T09:06:04;102286.03;;;-0.40;92.64
13068;BME280;6600;51.362;6.686;2022-12-18T09:08:29;102286.66;;;-0.36;92.43
13068;BME280;6600;51.362;6.686;2022-12-18T09:10:55;102279.28;;;-0.31;91.67
13068;BME280;6600;51.362;6.686;2022-12-18T09:13:20;102290.66;;;-0.18;91.76
13068;BME280;6600;51.362;6.686;2022-12-18T09:15:53;102277.44;;;-0.06;91.49
13068;BME280;6600;51.362;6.686;2022-12-18T09:18:20;102287.47;;;-0.11;90.99
13068;BME280;6600;51.362;6.686;2022-12-18T09:20:46;102286.63;;;-0.11;90.49
13068;BME280;6600;51.362;6.686;2022-12-18T09:23:11;102284.94;;;-0.12;90.65
13068;BME280;6600;51.362;6.686;2022-12-18T09:25:37;102288.09;;;-0.07;90.29
13068;BME280;6600;51.362;6.686;2022-12-18T09:28:12;102280.94;;;-0.05;90.23
13068;BME280;6600;51.362;6.686;2022-12-18T09:30:39;102275.34;;;-0.13;89.97
13068;BME280;6600;51.362;6.686;2022-12-18T09:33:04;102288.09;;;-0.07;88.65
13068;BME280;6600;51.362;6.686;2022-12-18T09:35:30;102278.69;;;0.02;89.18
13068;BME280;6600;51.362;6.686;2022-12-18T09:37:55;102280.88;;;0.08;88.90
13068;BME280;6600;51.362;6.686;2022-12-18T09:40:23;102284.00;;;0.25;89.07
13068;BME280;6600;51.362;6.686;2022-12-18T09:42:59;102266.06;;;0.30;88.73
13068;BME280;6600;51.362;6.686;2022-12-18T09:45:26;102262.69;;;0.28;88.33
13068;BME280;6600;51.362;6.686;2022-12-18T09:47:54;102248.31;;;0.32;87.74
13068;BME280;6600;51.362;6.686;2022-12-18T09:50:32;102251.91;;;0.31;88.45
13068;BME280;6600;51.362;6.686;2022-12-18T09:53:04;102255.75;;;0.27;87.85
13068;BME280;6600;51.362;6.686;2022-12-18T09:55:42;102261.41;;;0.34;87.98
13068;BME280;6600;51.362;6.686;2022-12-18T09:58:17;102254.59;;;0.42;87.89
13068;BME280;6600;51.362;6.686;2022-12-18T10:00:44;102251.25;;;0.40;87.50
13068;BME280;6600;51.362;6.686;2022-12-18T10:03:14;102239.72;;;0.41;86.48
13068;BME280;6600;51.362;6.686;2022-12-18T10:11:33;102250.50;;;0.62;86.54
13068;BME280;6600;51.362;6.686;2022-12-18T10:14:14;102245.69;;;0.56;86.34
13068;BME280;6600;51.362;6.686;2022-12-18T10:19:43;102240.19;;;0.59;86.45
13068;BME280;6600;51.362;6.686;2022-12-18T10:23:10;102229.38;;;0.62;86.56
13068;BME280;6600;51.362;6.686;2022-12-18T10:26:03;102215.88;;;0.67;86.73
13068;BME280;6600;51.362;6.686;2022-12-18T10:28:36;102216.16;;;0.75;87.36
13068;BME280;6600;51.362;6.686;2022-12-18T10:31:05;102202.00;;;0.76;86.87
13068;BME280;6600;51.362;6.686;2022-12-18T10:33:33;102201.03;;;0.77;87.08
13068;BME280;6600;51.362;6.686;2022-12-18T10:35:58;102199.13;;;0.79;86.15
13068;BME280;6600;51.362;6.686;2022-12-18T10:38:29;102201.56;;;0.93;86.48
13068;BME280;6600;51.362;6.686;2022-12-18T10:41:40;102201.72;;;0.68;86.08
13068;BME280;6600;51.362;6.686;2022-12-18T10:43:40;102201.50;;;0.71;87.24
13068;BME280;6600;51.362;6.686;2022-12-18T10:51:19;102185.03;;;1.02;86.24
13068;BME280;6600;51.362;6.686;2022-12-18T10:53:52;102188.25;;;0.94;86.26
13068;BME280;6600;51.362;6.686;2022-12-18T10:56:20;102177.09;;;1.02;85.91
13068;BME280;6600;51.362;6.686;2022-12-18T10:58:56;102172.28;;;1.07;85.91
13068;BME280;6600;51.362;6.686;2022-12-18T11:01:21;102174.69;;;0.88;86.49
13068;BME280;6600;51.362;6.686;2022-12-18T11:04:00;102171.84;;;1.13;86.21
13068;BME280;6600;51.362;6.686;2022-12-18T11:06:26;102175.66;;;1.09;85.42
13068;BME280;6600;51.362;6.686;2022-12-18T11:08:59;102178.06;;;1.12;85.02
13068;BME280;6600;51.362;6.686;2022-12-18T11:11:25;102180.72;;;1.12;84.77
13068;BME280;6600;51.362;6.686;2022-12-18T11:14:01;102173.25;;;1.28;84.61
13068;BME280;6600;51.362;6.686;2022-12-18T11:16:29;102173.66;;;1.24;84.50
13068;BME280;6600;51.362;6.686;2022-12-18T11:19:11;102153.13;;;1.27;84.21
13068;BME280;6600;51.362;6.686;2022-12-18T11:21:42;102157.19;;;1.31;84.72
13068;BME280;6600;51.362;6.686;2022-12-18T11:24:21;102159.09;;;1.18;85.20
13068;BME280;6600;51.362;6.686;2022-12-18T11:26:48;102147.69;;;1.18;84.68
13068;BME280;6600;51.362;6.686;2022-12-18T11:29:19;102140.03;;;1.26;85.60
13068;BME280;6600;51.362;6.686;2022-12-18T11:31:47;102135.34;;;1.29;85.53
13068;BME280;6600;51.362;6.686;2022-12-18T11:34:20;102141.13;;;1.34;84.95
13068;BME280;6600;51.362;6.686;2022-12-18T11:36:50;102134.59;;;1.38;85.01
13068;BME280;6600;51.362;6.686;2022-12-18T11:42:11;102117.56;;;1.53;84.25
13068;BME280;6600;51.362;6.686;2022-12-18T11:50:03;102115.16;;;1.39;83.35
13068;BME280;6600;51.362;6.686;2022-12-18T11:52:39;102111.28;;;1.66;83.04
13068;BME280;6600;51.362;6.686;2022-12-18T11:55:19;102114.91;;;1.42;83.10
13068;BME280;6600;51.362;6.686;2022-12-18T12:00:30;102112.28;;;1.53;83.22
13068;BME280;6600;51.362;6.686;2022-12-18T12:03:18;102105.63;;;1.59;82.43
13068;BME280;6600;51.362;6.686;2022-12-18T12:15:10;102108.75;;;1.75;82.71
13068;BME280;6600;51.362;6.686;2022-12-18T12:17:47;102096.84;;;1.70;82.25
13068;BME280;6600;51.362;6.686;2022-12-18T12:20:29;102092.03;;;1.75;82.74
13068;BME280;6600;51.362;6.686;2022-12-18T12:23:25;102088.31;;;1.77;82.64
13068;BME280;6600;51.362;6.686;2022-12-18T12:26:14;102087.97;;;1.71;82.67
13068;BME280;6600;51.362;6.686;2022-12-18T12:29:13;102083.88;;;1.78;82.50
13068;BME280;6600;51.362;6.686;2022-12-18T12:39:30;102065.47;;;1.76;82.18
13068;BME280;6600;51.362;6.686;2022-12-18T12:41:57;102072.00;;;1.72;82.26
13068;BME280;6600;51.362;6.686;2022-12-18T12:44:45;102058.66;;;1.74;82.38
13068;BME280;6600;51.362;6.686;2022-12-18T12:47:23;102069.19;;;1.85;82.31
13068;BME280;6600;51.362;6.686;2022-12-18T12:49:50;102079.78;;;1.74;81.71
13068;BME280;6600;51.362;6.686;2022-12-18T12:55:16;102071.09;;;1.83;82.42
13068;BME280;6600;51.362;6.686;2022-12-18T12:57:57;102073.91;;;1.70;82.43
13068;BME280;6600;51.362;6.686;2022-12-18T13:00:25;102079.09;;;1.72;83.58
13068;BME280;6600;51.362;6.686;2022-12-18T13:03:04;102075.72;;;1.70;82.80
13068;BME280;6600;51.362;6.686;2022-12-18T13:05:48;102079.56;;;1.66;82.75
13068;BME280;6600;51.362;6.686;2022-12-18T13:08:29;102073.69;;;1.62;82.29
13068;BME280;6600;51.362;6.686;2022-12-18T13:10:55;102071.81;;;1.42;83.33
13068;BME280;6600;51.362;6.686;2022-12-18T13:16:18;102052.00;;;1.59;83.82
13068;BME280;6600;51.362;6.686;2022-12-18T13:18:55;102040.25;;;1.51;83.59
13068;BME280;6600;51.362;6.686;2022-12-18T13:21:28;102038.09;;;1.45;82.64
13068;BME280;6600;51.362;6.686;2022-12-18T13:23:55;102038.34;;;1.42;82.61
13068;BME280;6600;51.362;6.686;2022-12-18T13:28:53;102026.84;;;1.21;82.83
13068;BME280;6600;51.362;6.686;2022-12-18T13:34:28;102006.44;;;1.34;83.09
13068;BME280;6600;51.362;6.686;2022-12-18T13:39:58;102007.75;;;1.29;83.04
13068;BME280;6600;51.362;6.686;2022-12-18T13:45:38;101995.63;;;1.37;83.14
13068;BME280;6600;51.362;6.686;2022-12-18T13:48:04;101997.28;;;1.38;83.27
13068;BME280;6600;51.362;6.686;2022-12-18T13:50:29;101986.47;;;1.41;83.55
13068;BME280;6600;51.362;6.686;2022-12-18T13:52:55;101983.88;;;1.30;82.46
13068;BME280;6600;51.362;6.686;2022-12-18T13:55:22;101986.72;;;1.38;83.27
13068;BME280;6600;51.362;6.686;2022-12-18T13:57:47;101978.34;;;1.33;83.55
13068;BME280;6600;51.362;6.686;2022-12-18T14:00:31;101975.56;;;1.35;83.55
13068;BME280;6600;51.362;6.686;2022-12-18T14:02:58;101974.28;;;1.29;83.88
13068;BME280;6600;51.362;6.686;2022-12-18T14:05:31;101979.78;;;1.37;83.40
13068;BME280;6600;51.362;6.686;2022-12-18T14:08:05;101975.91;;;1.41;83.59
13068;BME280;6600;51.362;6.686;2022-12-18T14:10:31;101969.22;;;1.37;84.21
13068;BME280;6600;51.362;6.686;2022-12-18T14:12:58;101971.97;;;1.36;84.25
13068;BME280;6600;51.362;6.686;2022-12-18T14:18:02;101951.94;;;1.33;82.77
13068;BME280;6600;51.362;6.686;2022-12-18T14:20:31;101944.66;;;1.26;82.71
13068;BME280;6600;51.362;6.686;2022-12-18T14:22:57;101946.94;;;1.30;81.92
13068;BME280;6600;51.362;6.686;2022-12-18T14:25:26;101954.13;;;1.28;82.54
13068;BME280;6600;51.362;6.686;2022-12-18T14:30:37;101943.28;;;1.31;82.66